SARFSARE

Guest
Details From SARF - FORMOSA
To SARE - RESISTENCIA
Flight Number -
Tags generated
Created
Modified
Stats Distance 87 nm / 160 km
Max Altitude 0 ft / 0 m
Waypoints 3
Social Downloads 1
Likes 0
Share VATSIM

Download

Looking for another format? Having issues loading an existing format? Contact us
Advertisement - Login to hide

Notes

Basic altitude profile: - Ascent Rate: 2500ft/min - Ascent Speed: 250kts - Cruise Altitude: 35000ft - Cruise Speed: 420kts - Descent Rate: 1500ft/min - Descent Speed: 250kts Options: - Use NATs: yes - Use PACOTS: yes - Use low airways: yes - Use high airways: yes

Route

SARF SIS SARE

ID Type Via Altitude Latitude Longitude Leg Dist Tot Dist Heading (true) Name
O SARF APT - 0 ft / 0 m -26.21272˚ -58.22811˚ - 0 nm - FORMOSA
SIS VOR - 0 ft / 0 m -27.44694˚ -59.05722˚ 86 nm 86 nm 211° / 211° RESISTENCIA VOR-DME
O SARE APT - 0 ft / 0 m -27.44999˚ -59.05613˚ 0 nm 86 nm 162° / 162° RESISTENCIA

Altitude Profile

Advertisement - Login to hide

SARF

Details ICAO SARF (FMA)
Name FORMOSA
Region Argentina
Timezone America/Argentina/Cordoba (UTC-3.0)
Stats Elevation 194 ft / 59 m (AMSL)
Location -26.212722° -58.228111°
Runways 1
Magnetic Variation 13.315° W

METAR

SARF 280100Z 07009KT CAVOK 23/19 Q1015

Decode

TAF

TAF SARF 272300Z 2800/2824 05005KT CAVOK TX31/2818Z TN19/2810Z PROB40 2806/2810 2000 BR NSC

Decode

Departure Runways

ID Width Length Bearing (true) Bearing (mag) Surface Threshold Offset Overrun Length
04 100 ft / 30 m 5,922 ft / 1,805 m 24.88° 38.20° Asphalt 0 ft / 0 m 65 ft / 20 m
22 100 ft / 30 m 5,922 ft / 1,805 m 204.88° 218.20° Asphalt 0 ft / 0 m 65 ft / 20 m

SARE

Details ICAO SARE (RES)
Name RESISTENCIA
Region Argentina
Timezone America/Argentina/Cordoba (UTC-3.0)
Stats Elevation 173 ft / 53 m (AMSL)
Location -27.449986° -59.056125°
Runways 1
Magnetic Variation 12.132° W

METAR

SARE 280200Z 04007KT CAVOK 22/18 Q1014

Decode

TAF

TAF SARE 272300Z 2800/2824 05005KT CAVOK TX30/2818Z TN18/2810Z PROB40 2806/2810 2000 BR NSC

Decode

Destination Runways

ID Width Length Bearing (true) Bearing (mag) Surface Threshold Offset Overrun Length
03 147 ft / 45 m 9,126 ft / 2,782 m 20.81° 32.94° Asphalt 0 ft / 0 m 115 ft / 35 m
21 147 ft / 45 m 9,126 ft / 2,782 m 200.81° 212.94° Asphalt 0 ft / 0 m 115 ft / 35 m

Approach Navaids

Runway Type Ident Frequency Range Bearing (true) Bearing (mag) Slope Elevation
21 Localiser RS 110.30 MHz 18 nm / 33 km 200.74° 212.88° - 174 ft / 53 m (AMSL)
21 Glidescope RS 110.30 MHz 10 nm / 19 km 200.81° 212.94° 3.00° 174 ft / 53 m (AMSL)